Overview Statistics Trail Chart Weather Telemetry Raw packets
 

This is the latest recevied weather packets stored in our database for station/object Krozingen. If no packets are shown the sender has not sent any weather packets the latest 10 day(s).

<< 16 17 18 19 20 >>
Time Temp. Humidity Pressure Rain* Wind** Luminosity Snow
1787765530 26.67° C 62% 1012.8 hPa 0 mm - - -
1787763731 27.22° C 62% 1012.8 hPa 0 mm - - -
1787761931 27.78° C 59% 1012.8 hPa 0 mm - - -
1787760131 28.33° C 56% 1012.9 hPa 0 mm - - -
1787758331 28.89° C 51% 1013.5 hPa 0 mm - - -
1787756530 28.33° C 52% 1013.8 hPa 0 mm - - -
1787754731 28.33° C 53% 1013.8 hPa 0 mm - - -
1787752930 28.89° C 53% 1014.2 hPa 0 mm - - -
1787751131 28.33° C 56% 1014.6 hPa 0 mm - - -
1787749330 27.22° C 61% 1014.9 hPa 0 mm - - -
1787747533 26.67° C 64% 1015.1 hPa 0 mm - - -
1787745730 25.56° C 70% 1015.5 hPa 0 mm - - -
1787743930 24.44° C 73% 1015.7 hPa 0 mm - - -
1787742134 22.78° C 77% 1016 hPa 0 mm - - -
1787740330 22.22° C 80% 1016.3 hPa 0 mm - - -
1787738530 20.56° C 83% 1016.7 hPa 0 mm - - -
1787734930 18.33° C 92% 1017.1 hPa 0 mm - - -
1787733130 17.78° C 95% 1017 hPa 0 mm - - -
1787731330 17.22° C 96% 1016.8 hPa 0 mm - - -
1787729531 16.67° C 97% 1016.7 hPa 0 mm - - -
1787727730 16.67° C 97% 1016.6 hPa 0 mm - - -
1787725929 16.11° C 98% 1016.6 hPa 0 mm - - -
1787724130 16.11° C 98% 1016.6 hPa 0 mm - - -
1787722332 16.11° C 98% 1016.4 hPa 0 mm - - -
1787720529 16.11° C 97% 1016.1 hPa 0 mm - - -

* Rain since midnight (hover to see other rain measurements)
** Current wind speed in m/s (hover to see current wind gust speed)